createdAt,value
2022-09-30T00:01:54.352Z,90.90
2022-09-30T00:04:25.438Z,90.90
2022-09-30T00:06:57.741Z,90.80
2022-09-30T00:09:27.907Z,90.80
2022-09-30T00:11:55.346Z,90.90
2022-09-30T00:14:28.101Z,90.90
2022-09-30T00:16:57.919Z,90.90
2022-09-30T00:19:27.719Z,90.90
2022-09-30T00:21:57.326Z,90.90
2022-09-30T00:24:24.754Z,90.90
2022-09-30T00:26:52.778Z,91.00
2022-09-30T00:29:20.245Z,91.00
2022-09-30T00:31:47.784Z,90.90
2022-09-30T00:34:15.220Z,90.80
2022-09-30T00:36:43.945Z,90.80
2022-09-30T00:39:36.910Z,90.80
2022-09-30T00:42:11.610Z,90.60
2022-09-30T00:45:06.416Z,90.70
2022-09-30T00:47:52.281Z,90.50
2022-09-30T00:50:48.817Z,90.70
2022-09-30T00:53:16.209Z,90.70
2022-09-30T00:56:11.277Z,90.80
2022-09-30T00:58:46.906Z,90.70
2022-09-30T01:01:17.541Z,90.80
2022-09-30T01:04:00.218Z,90.90
2022-09-30T01:06:32.754Z,90.90
2022-09-30T01:09:06.038Z,90.90
2022-09-30T01:11:33.515Z,90.90
2022-09-30T01:14:06.245Z,90.80
2022-09-30T01:16:48.764Z,90.80
2022-09-30T01:19:34.723Z,90.80
2022-09-30T01:22:23.491Z,91.00
2022-09-30T01:25:21.418Z,91.00
2022-09-30T01:28:03.932Z,90.90
2022-09-30T01:30:48.985Z,90.90
2022-09-30T01:33:24.716Z,90.80
2022-09-30T01:36:05.122Z,91.00
2022-09-30T01:38:49.917Z,91.00
2022-09-30T01:41:29.863Z,90.90
2022-09-30T01:44:14.347Z,90.90
2022-09-30T01:46:46.150Z,90.90
2022-09-30T01:49:39.319Z,90.90
2022-09-30T01:52:17.139Z,90.70
2022-09-30T01:54:50.971Z,90.70
2022-09-30T01:57:27.526Z,90.80
2022-09-30T02:00:07.861Z,90.90
2022-09-30T02:02:44.704Z,90.70
2022-09-30T02:05:23.631Z,90.70
2022-09-30T02:08:03.961Z,90.70
2022-09-30T02:10:47.136Z,90.70
2022-09-30T02:13:22.417Z,90.60
2022-09-30T02:15:58.031Z,90.70
2022-09-30T02:18:41.561Z,90.70
2022-09-30T02:21:10.775Z,90.70
2022-09-30T02:23:42.937Z,90.80
2022-09-30T02:26:18.689Z,90.80
2022-09-30T02:28:56.600Z,90.70
2022-09-30T02:31:28.097Z,90.80
2022-09-30T02:34:02.888Z,90.70
2022-09-30T02:37:03.646Z,90.70
2022-09-30T02:39:47.895Z,90.60
2022-09-30T02:42:21.473Z,90.70
2022-09-30T02:44:53.851Z,90.80
2022-09-30T02:47:34.244Z,90.80
2022-09-30T02:50:15.396Z,90.80
2022-09-30T02:53:10.195Z,90.60
2022-09-30T02:56:00.767Z,90.70
2022-09-30T02:58:36.607Z,90.80
2022-09-30T03:01:04.116Z,90.80
2022-09-30T03:03:42.758Z,90.80
2022-09-30T03:06:10.698Z,90.80
2022-09-30T03:08:38.219Z,90.90
2022-09-30T03:11:06.761Z,90.80
2022-09-30T03:13:59.000Z,90.80
2022-09-30T03:16:45.031Z,90.50
2022-09-30T03:19:31.763Z,90.50
2022-09-30T03:22:24.848Z,90.60
2022-09-30T03:25:29.940Z,90.70
2022-09-30T03:28:19.785Z,90.60
2022-09-30T03:30:50.945Z,90.60
2022-09-30T03:33:36.561Z,90.80
2022-09-30T03:36:24.527Z,90.70
2022-09-30T03:39:04.845Z,90.60
2022-09-30T03:41:40.300Z,90.50
2022-09-30T03:44:28.263Z,90.60
2022-09-30T03:47:01.302Z,90.60
2022-09-30T03:49:36.899Z,90.70
2022-09-30T03:52:09.267Z,90.60
2022-09-30T03:54:49.977Z,90.50
2022-09-30T03:57:17.402Z,90.40
2022-09-30T03:59:44.819Z,90.50
2022-09-30T04:02:15.607Z,90.50
2022-09-30T04:04:43.248Z,90.50
2022-09-30T04:07:11.507Z,90.50
2022-09-30T04:09:39.577Z,90.50
2022-09-30T04:12:09.822Z,90.60
2022-09-30T04:17:18.705Z,90.60
2022-09-30T04:19:46.245Z,90.70
2022-09-30T04:22:16.592Z,90.70
2022-09-30T04:24:44.050Z,90.80
2022-09-30T04:27:11.491Z,90.70
2022-09-30T04:29:38.883Z,90.70
2022-09-30T04:32:08.714Z,90.60
2022-09-30T04:34:36.095Z,90.60
2022-09-30T04:37:10.630Z,90.60
2022-09-30T04:39:38.391Z,90.60
2022-09-30T04:42:06.286Z,90.60
2022-09-30T04:44:35.458Z,90.60
2022-09-30T04:47:03.105Z,90.50
2022-09-30T04:49:30.527Z,90.50
2022-09-30T04:51:58.014Z,90.50
2022-09-30T04:54:25.605Z,90.50
2022-09-30T04:56:55.529Z,90.50
2022-09-30T04:59:23.087Z,90.30
2022-09-30T05:01:50.535Z,90.40
2022-09-30T05:04:17.970Z,90.50
2022-09-30T05:06:45.422Z,90.40
2022-09-30T05:09:15.064Z,90.40
2022-09-30T05:11:42.764Z,90.40
2022-09-30T05:14:11.789Z,90.40
2022-09-30T05:16:39.289Z,90.40
2022-09-30T05:19:06.780Z,90.40
2022-09-30T05:21:35.762Z,90.80
2022-09-30T05:24:03.769Z,90.60
2022-09-30T05:26:31.227Z,90.70
2022-09-30T05:28:58.733Z,90.70
2022-09-30T05:31:27.236Z,90.80
2022-09-30T05:33:58.042Z,90.70
2022-09-30T05:36:26.264Z,90.80
2022-09-30T05:38:56.161Z,90.80
2022-09-30T05:41:24.642Z,90.70
2022-09-30T05:43:54.540Z,90.70
2022-09-30T05:46:26.533Z,90.70
2022-09-30T05:48:55.076Z,90.80
2022-09-30T05:51:25.712Z,90.90
2022-09-30T05:53:53.568Z,90.80
2022-09-30T05:56:21.171Z,90.80
2022-09-30T05:58:50.771Z,90.90
2022-09-30T06:01:18.255Z,90.80
2022-09-30T06:03:48.439Z,90.80
2022-09-30T06:06:16.216Z,90.90
2022-09-30T06:08:44.621Z,90.90
2022-09-30T06:11:16.041Z,90.90
2022-09-30T06:13:44.426Z,90.90
2022-09-30T06:16:12.697Z,91.00
2022-09-30T06:18:46.049Z,91.00
2022-09-30T06:21:17.633Z,91.30
2022-09-30T06:23:47.306Z,90.90
2022-09-30T06:26:17.344Z,90.70
2022-09-30T06:28:45.406Z,90.80
2022-09-30T06:31:14.947Z,90.80
2022-09-30T06:33:44.806Z,90.80
2022-09-30T06:36:12.314Z,90.90
2022-09-30T06:38:42.241Z,90.90
2022-09-30T06:41:09.796Z,91.00
2022-09-30T06:43:41.282Z,91.00
2022-09-30T06:46:20.373Z,91.00
2022-09-30T06:49:10.452Z,91.00
2022-09-30T06:51:44.765Z,90.90
2022-09-30T06:54:17.093Z,91.00
2022-09-30T06:56:46.778Z,91.10
2022-09-30T06:59:17.231Z,91.10
2022-09-30T07:01:45.281Z,91.10
2022-09-30T07:04:13.185Z,91.10
2022-09-30T07:06:41.624Z,91.10
2022-09-30T07:09:10.763Z,91.00
2022-09-30T07:11:39.029Z,90.90
2022-09-30T07:14:07.805Z,90.90
2022-09-30T07:16:38.636Z,91.20
2022-09-30T07:19:10.295Z,90.90
2022-09-30T07:21:39.818Z,90.90
2022-09-30T07:24:07.226Z,90.60
2022-09-30T07:26:34.648Z,90.80
2022-09-30T07:29:07.291Z,90.80
2022-09-30T07:31:35.990Z,90.80
2022-09-30T07:34:11.617Z,90.70
2022-09-30T07:36:40.212Z,90.80
2022-09-30T07:39:12.056Z,90.90
2022-09-30T07:41:40.399Z,91.00
2022-09-30T07:44:14.385Z,91.10
2022-09-30T07:46:44.856Z,91.10
2022-09-30T07:49:24.791Z,91.10
2022-09-30T07:51:55.705Z,91.00
2022-09-30T07:54:28.037Z,91.00
2022-09-30T07:57:12.044Z,90.80
2022-09-30T07:59:41.709Z,90.80
2022-09-30T08:02:15.091Z,90.80
2022-09-30T08:04:44.313Z,90.70
2022-09-30T08:07:18.891Z,90.70
2022-09-30T08:09:46.438Z,90.70
2022-09-30T08:12:16.301Z,90.70
2022-09-30T08:14:44.897Z,90.60
2022-09-30T08:17:12.310Z,90.60
2022-09-30T08:19:44.162Z,90.70
2022-09-30T08:22:14.182Z,90.70
2022-09-30T08:24:41.735Z,90.80
2022-09-30T08:27:13.631Z,91.00
2022-09-30T08:29:58.371Z,90.70
2022-09-30T08:32:34.110Z,90.80
2022-09-30T08:35:01.583Z,90.60
2022-09-30T08:37:29.130Z,90.90
2022-09-30T08:39:58.689Z,91.00
2022-09-30T08:43:01.308Z,90.90
2022-09-30T08:45:37.341Z,90.40
2022-09-30T08:48:26.376Z,90.90
2022-09-30T08:50:58.230Z,90.90
2022-09-30T08:53:33.448Z,91.10
2022-09-30T08:56:04.251Z,91.00
2022-09-30T08:58:38.680Z,91.10
2022-09-30T09:01:10.857Z,90.70
2022-09-30T09:03:40.264Z,90.80
2022-09-30T09:06:45.222Z,90.90
2022-09-30T09:09:23.478Z,90.10
2022-09-30T09:12:12.190Z,90.60
2022-09-30T09:15:18.013Z,89.10
2022-09-30T09:18:23.579Z,88.90
2022-09-30T09:20:59.992Z,88.60
2022-09-30T09:23:32.952Z,89.80
2022-09-30T09:26:03.335Z,89.50
2022-09-30T09:29:06.522Z,89.60
2022-09-30T09:31:34.277Z,88.00
2022-09-30T09:34:13.624Z,89.30
2022-09-30T09:37:04.654Z,88.30
2022-09-30T09:40:06.817Z,88.00
2022-09-30T09:43:17.781Z,87.40
2022-09-30T09:46:11.557Z,87.10
2022-09-30T09:48:39.393Z,86.90
2022-09-30T09:51:13.242Z,88.00
2022-09-30T09:53:53.577Z,88.10
2022-09-30T09:56:25.429Z,88.00
2022-09-30T09:59:20.647Z,88.10
2022-09-30T10:01:53.851Z,86.60
2022-09-30T10:04:27.505Z,87.70
2022-09-30T10:07:02.205Z,87.60
2022-09-30T10:09:33.213Z,87.60
2022-09-30T10:12:06.676Z,87.60
2022-09-30T10:15:00.464Z,86.40
2022-09-30T10:17:33.398Z,85.60
2022-09-30T10:20:18.639Z,85.10
2022-09-30T10:22:47.803Z,85.50
2022-09-30T10:25:15.111Z,85.60
2022-09-30T10:28:26.970Z,85.90
2022-09-30T10:30:54.345Z,83.50
2022-09-30T10:33:30.986Z,86.00
2022-09-30T10:36:03.255Z,86.60
2022-09-30T10:38:34.763Z,86.50
2022-09-30T10:41:03.034Z,87.40
2022-09-30T10:43:30.238Z,86.70
2022-09-30T10:46:24.668Z,87.60
2022-09-30T10:48:59.176Z,86.10
2022-09-30T10:51:34.127Z,85.80
2022-09-30T10:54:02.679Z,85.70
2022-09-30T10:56:43.198Z,85.10
2022-09-30T10:59:22.610Z,84.80
2022-09-30T11:02:01.983Z,85.10
2022-09-30T11:04:39.574Z,83.30
2022-09-30T11:07:38.931Z,82.60
2022-09-30T11:10:39.584Z,82.10
2022-09-30T11:13:09.322Z,82.00
2022-09-30T11:16:08.659Z,82.50
2022-09-30T11:18:41.604Z,81.80
2022-09-30T11:21:24.256Z,83.00
2022-09-30T11:24:02.825Z,79.60
2022-09-30T11:27:16.229Z,79.60
2022-09-30T11:29:49.694Z,77.80
2022-09-30T11:32:40.731Z,77.40
2022-09-30T11:35:25.979Z,78.50
2022-09-30T11:38:20.419Z,79.00
2022-09-30T11:41:19.783Z,77.50
2022-09-30T11:44:13.312Z,77.90
2022-09-30T11:46:52.570Z,76.70
2022-09-30T11:49:53.146Z,75.60
2022-09-30T11:52:41.222Z,75.20
2022-09-30T11:55:49.897Z,74.50
2022-09-30T11:58:41.072Z,73.50
2022-09-30T12:01:16.998Z,74.40
2022-09-30T12:03:50.510Z,75.90
2022-09-30T12:06:42.327Z,75.90
2022-09-30T12:09:17.716Z,73.90
2022-09-30T12:11:49.870Z,72.60
2022-09-30T12:14:59.457Z,72.60
2022-09-30T12:18:27.451Z,70.40
2022-09-30T12:21:02.078Z,71.70
2022-09-30T12:23:39.693Z,71.30
2022-09-30T12:26:07.432Z,69.70
2022-09-30T12:29:40.795Z,69.60
2022-09-30T12:32:19.220Z,68.40
2022-09-30T12:34:55.646Z,67.30
2022-09-30T12:37:28.985Z,66.60
2022-09-30T12:40:30.085Z,67.30
2022-09-30T12:43:26.247Z,67.30
2022-09-30T12:46:32.818Z,69.10
2022-09-30T12:49:07.838Z,68.20
2022-09-30T12:51:43.263Z,68.00
2022-09-30T12:54:30.521Z,65.30
2022-09-30T12:57:01.292Z,66.10
2022-09-30T12:59:34.689Z,65.50
2022-09-30T13:02:04.454Z,65.90
2022-09-30T13:04:39.072Z,66.00
2022-09-30T13:07:11.228Z,66.70
2022-09-30T13:10:03.022Z,67.20
2022-09-30T13:12:47.842Z,66.30
2022-09-30T13:15:30.420Z,66.50
2022-09-30T13:18:27.016Z,67.30
2022-09-30T13:21:07.972Z,67.10
2022-09-30T13:23:48.190Z,68.00
2022-09-30T13:26:31.920Z,70.20
2022-09-30T13:29:04.665Z,68.50
2022-09-30T13:31:53.104Z,68.60
2022-09-30T13:34:27.443Z,68.90
2022-09-30T13:37:05.045Z,68.60
2022-09-30T13:39:35.409Z,68.10
2022-09-30T13:42:24.911Z,68.90
2022-09-30T13:45:16.655Z,68.30
2022-09-30T13:47:58.337Z,67.90
2022-09-30T13:50:37.074Z,69.40
2022-09-30T13:53:16.887Z,69.60
2022-09-30T13:55:50.933Z,69.60
2022-09-30T13:58:52.880Z,70.70
2022-09-30T14:01:38.978Z,69.20
2022-09-30T14:04:29.236Z,70.30
2022-09-30T14:07:05.665Z,68.80
2022-09-30T14:09:52.172Z,68.80
2022-09-30T14:12:34.042Z,69.40
2022-09-30T14:15:22.185Z,70.10
2022-09-30T14:18:32.647Z,71.30
2022-09-30T14:21:36.064Z,70.00
2022-09-30T14:24:12.136Z,70.40
2022-09-30T14:26:58.249Z,70.30
2022-09-30T14:30:02.791Z,70.40
2022-09-30T14:32:33.850Z,69.20
2022-09-30T14:35:07.730Z,71.70
2022-09-30T14:37:41.916Z,70.30
2022-09-30T14:40:17.817Z,70.60
2022-09-30T14:42:47.549Z,69.60
2022-09-30T14:45:26.820Z,70.20
2022-09-30T14:47:58.533Z,69.40
2022-09-30T14:50:33.425Z,70.50
2022-09-30T14:53:03.269Z,69.10
2022-09-30T14:55:36.126Z,70.40
2022-09-30T14:58:31.556Z,69.30
2022-09-30T15:01:07.845Z,69.50
2022-09-30T15:03:39.509Z,71.40
2022-09-30T15:06:24.427Z,70.90
2022-09-30T15:09:01.236Z,70.30
2022-09-30T15:11:36.018Z,71.30
2022-09-30T15:14:15.335Z,71.60
2022-09-30T15:16:50.595Z,70.90
2022-09-30T15:19:34.053Z,70.10
2022-09-30T15:22:09.535Z,70.10
2022-09-30T15:24:37.768Z,70.70
2022-09-30T15:27:07.730Z,70.60
2022-09-30T15:29:35.101Z,71.40
2022-09-30T15:32:12.376Z,70.60
2022-09-30T15:34:40.136Z,71.00
2022-09-30T15:37:07.906Z,70.20
2022-09-30T15:40:00.881Z,70.70
2022-09-30T15:42:35.398Z,70.30
2022-09-30T15:45:23.963Z,70.60
2022-09-30T15:48:00.111Z,71.50
2022-09-30T15:50:48.116Z,71.00
2022-09-30T15:53:25.800Z,70.40
2022-09-30T15:55:56.080Z,71.40
2022-09-30T15:58:39.719Z,72.20
2022-09-30T16:01:22.150Z,71.80
2022-09-30T16:03:55.694Z,71.70
2022-09-30T16:06:36.779Z,72.50
2022-09-30T16:09:20.978Z,72.60
2022-09-30T16:12:03.725Z,71.90
2022-09-30T16:14:55.955Z,72.20
2022-09-30T16:17:37.644Z,72.20
2022-09-30T16:20:08.439Z,72.10
2022-09-30T16:22:44.544Z,72.50
2022-09-30T16:25:31.749Z,72.90
2022-09-30T16:28:12.521Z,72.10
2022-09-30T16:30:45.971Z,73.60
2022-09-30T16:33:16.871Z,73.50
2022-09-30T16:35:52.351Z,74.00
2022-09-30T16:38:20.083Z,74.20
2022-09-30T16:40:47.399Z,74.90
2022-09-30T16:43:14.721Z,74.30
2022-09-30T16:45:42.587Z,74.20
2022-09-30T16:48:18.207Z,74.50
2022-09-30T16:51:02.018Z,74.20
2022-09-30T16:53:29.480Z,74.00
2022-09-30T16:55:59.648Z,75.10
2022-09-30T16:58:29.754Z,75.00
2022-09-30T17:01:02.431Z,75.70
2022-09-30T17:03:31.047Z,76.00
2022-09-30T17:06:01.136Z,76.30
2022-09-30T17:08:28.679Z,76.70
2022-09-30T17:11:00.409Z,77.00
2022-09-30T17:13:28.757Z,76.70
2022-09-30T17:15:57.246Z,77.00
2022-09-30T17:18:27.244Z,77.20
2022-09-30T17:20:55.340Z,77.20
2022-09-30T17:23:26.880Z,77.20
2022-09-30T17:25:54.941Z,77.30
2022-09-30T17:28:27.468Z,76.40
2022-09-30T17:30:59.294Z,77.50
2022-09-30T17:33:35.229Z,77.80
2022-09-30T17:36:07.166Z,77.80
2022-09-30T17:38:35.439Z,78.20
2022-09-30T17:41:24.780Z,78.30
2022-09-30T17:43:52.344Z,78.10
2022-09-30T17:46:23.422Z,78.80
2022-09-30T17:48:58.230Z,79.00
2022-09-30T17:51:28.072Z,78.60
2022-09-30T17:53:55.772Z,78.70
2022-09-30T17:56:25.239Z,79.00
2022-09-30T17:58:52.852Z,79.00
2022-09-30T18:01:21.533Z,79.00
2022-09-30T18:03:53.520Z,79.30
2022-09-30T18:06:21.240Z,79.30
2022-09-30T18:08:52.665Z,79.60
2022-09-30T18:11:25.035Z,79.50
2022-09-30T18:13:57.988Z,79.70
2022-09-30T18:16:31.029Z,79.80
2022-09-30T18:19:04.634Z,79.50
2022-09-30T18:21:39.095Z,79.40
2022-09-30T18:24:07.294Z,79.80
2022-09-30T18:26:36.010Z,79.90
2022-09-30T18:29:05.453Z,80.10
2022-09-30T18:31:37.304Z,80.20
2022-09-30T18:34:06.902Z,80.30
2022-09-30T18:36:35.224Z,80.10
2022-09-30T18:39:09.602Z,80.00
2022-09-30T18:41:43.127Z,79.90
2022-09-30T18:44:12.613Z,80.10
2022-09-30T18:46:40.599Z,80.00
2022-09-30T18:49:07.987Z,80.10
2022-09-30T18:51:35.754Z,80.10
2022-09-30T18:54:08.498Z,80.10
2022-09-30T18:56:38.422Z,79.70
2022-09-30T18:59:18.111Z,79.90
2022-09-30T19:01:54.038Z,80.00
2022-09-30T19:04:24.213Z,80.00
2022-09-30T19:06:53.937Z,80.30
2022-09-30T19:09:21.365Z,80.40
2022-09-30T19:11:51.489Z,80.20
2022-09-30T19:14:18.930Z,80.40
2022-09-30T19:16:49.368Z,80.40
2022-09-30T19:19:18.365Z,80.60
2022-09-30T19:21:45.748Z,81.00
2022-09-30T19:24:13.081Z,81.20
2022-09-30T19:26:40.543Z,81.20
2022-09-30T19:29:09.611Z,81.10
2022-09-30T19:31:39.616Z,81.10
2022-09-30T19:34:07.245Z,81.20
2022-09-30T19:36:44.812Z,81.30
2022-09-30T19:39:16.615Z,81.30
2022-09-30T19:41:46.276Z,81.20
2022-09-30T19:44:18.671Z,81.10
2022-09-30T19:46:51.360Z,81.40
2022-09-30T19:49:18.874Z,81.40
2022-09-30T19:51:50.275Z,81.80
2022-09-30T19:54:36.012Z,81.80
2022-09-30T19:57:05.568Z,81.90
2022-09-30T19:59:32.916Z,82.00
2022-09-30T20:02:00.494Z,82.10
2022-09-30T20:04:29.080Z,82.20
2022-09-30T20:06:56.440Z,82.20
2022-09-30T20:09:24.218Z,82.40
2022-09-30T20:11:51.559Z,82.50
2022-09-30T20:14:37.446Z,82.50
2022-09-30T20:17:05.099Z,82.50
2022-09-30T20:19:34.714Z,82.50
2022-09-30T20:22:05.086Z,82.60
2022-09-30T20:24:33.158Z,82.60
2022-09-30T20:27:00.712Z,82.50
2022-09-30T20:29:30.302Z,82.70
2022-09-30T20:32:05.100Z,83.50
2022-09-30T20:34:38.678Z,83.00
2022-09-30T20:37:06.455Z,82.90
2022-09-30T20:39:34.703Z,83.10
2022-09-30T20:42:03.933Z,83.10
2022-09-30T20:44:38.599Z,83.20
2022-09-30T20:47:08.430Z,83.30
2022-09-30T20:49:38.327Z,83.10
2022-09-30T20:52:06.073Z,83.00
2022-09-30T20:54:38.678Z,83.10
2022-09-30T20:57:07.652Z,83.20
2022-09-30T20:59:35.593Z,83.30
2022-09-30T21:02:04.011Z,83.40
2022-09-30T21:04:32.539Z,83.50
2022-09-30T21:07:02.365Z,83.20
2022-09-30T21:09:34.781Z,83.00
2022-09-30T21:12:04.678Z,82.90
2022-09-30T21:14:32.178Z,82.90
2022-09-30T21:16:59.488Z,83.20
2022-09-30T21:19:26.937Z,84.00
2022-09-30T21:21:56.354Z,83.20
2022-09-30T21:24:25.068Z,83.10
2022-09-30T21:26:52.962Z,83.10
2022-09-30T21:29:27.440Z,83.00
2022-09-30T21:31:54.830Z,83.00
2022-09-30T21:34:24.743Z,82.90
2022-09-30T21:36:52.129Z,82.80
2022-09-30T21:39:19.489Z,82.90
2022-09-30T21:41:47.816Z,83.70
2022-09-30T21:44:16.093Z,83.30
2022-09-30T21:46:48.177Z,83.40
2022-09-30T21:49:16.129Z,83.30
2022-09-30T21:51:43.562Z,83.40
2022-09-30T21:54:14.394Z,83.50
2022-09-30T21:56:43.053Z,83.60
2022-09-30T21:59:12.860Z,83.40
2022-09-30T22:01:40.834Z,83.40
2022-09-30T22:04:08.619Z,83.40
2022-09-30T22:06:36.008Z,83.40
2022-09-30T22:09:04.070Z,83.40
2022-09-30T22:11:33.174Z,83.30
2022-09-30T22:14:03.307Z,83.30
2022-09-30T22:16:34.991Z,83.00
2022-09-30T22:19:05.356Z,83.00
2022-09-30T22:21:34.646Z,82.90
2022-09-30T22:24:06.745Z,83.10
2022-09-30T22:26:34.308Z,82.70
2022-09-30T22:29:07.897Z,83.10
2022-09-30T22:31:40.592Z,82.90
2022-09-30T22:34:30.880Z,82.90
2022-09-30T22:37:16.940Z,83.20
2022-09-30T22:39:46.944Z,83.40
2022-09-30T22:42:14.333Z,83.00
2022-09-30T22:44:41.749Z,83.10
2022-09-30T22:47:12.138Z,83.10
2022-09-30T22:49:39.696Z,83.10
2022-09-30T22:52:09.577Z,83.00
2022-09-30T22:54:37.390Z,82.90
2022-09-30T22:57:07.839Z,83.00
2022-09-30T22:59:36.341Z,83.10
2022-09-30T23:02:05.217Z,83.10
2022-09-30T23:04:36.186Z,83.10
2022-09-30T23:07:07.638Z,82.80
2022-09-30T23:09:35.048Z,82.70
2022-09-30T23:12:02.423Z,82.80
2022-09-30T23:14:30.281Z,83.10
2022-09-30T23:16:57.599Z,83.30
2022-09-30T23:19:25.176Z,83.40
2022-09-30T23:21:54.714Z,83.50
2022-09-30T23:24:24.800Z,83.20
2022-09-30T23:26:52.109Z,83.20
2022-09-30T23:29:19.417Z,83.20
2022-09-30T23:31:46.799Z,83.40
2022-09-30T23:34:14.211Z,83.30
2022-09-30T23:36:43.609Z,83.50
2022-09-30T23:39:18.662Z,83.60
2022-09-30T23:41:47.418Z,83.70
2022-09-30T23:44:20.794Z,83.80
2022-09-30T23:47:06.935Z,83.90
2022-09-30T23:49:38.971Z,83.90
2022-09-30T23:52:12.669Z,83.70
2022-09-30T23:54:48.221Z,83.60
2022-09-30T23:57:17.870Z,83.10
2022-09-30T23:59:47.315Z,83.50
